sensor_id;sensor_type;location;lat;lon;timestamp;P1;durP1;ratioP1;P2;durP2;ratioP2
29044;SDS011;16133;49.486;12.176;2022-09-02T00:01:25;5.57;;;3.13;;
29044;SDS011;16133;49.486;12.176;2022-09-02T00:03:55;4.22;;;2.58;;
29044;SDS011;16133;49.486;12.176;2022-09-02T00:06:22;3.92;;;2.90;;
29044;SDS011;16133;49.486;12.176;2022-09-02T00:08:49;5.18;;;2.78;;
29044;SDS011;16133;49.486;12.176;2022-09-02T00:11:15;2.70;;;2.50;;
29044;SDS011;16133;49.486;12.176;2022-09-02T00:13:43;4.97;;;2.95;;
29044;SDS011;16133;49.486;12.176;2022-09-02T00:16:09;5.05;;;3.50;;
29044;SDS011;16133;49.486;12.176;2022-09-02T00:18:35;3.85;;;3.22;;
29044;SDS011;16133;49.486;12.176;2022-09-02T00:21:01;4.50;;;3.15;;
29044;SDS011;16133;49.486;12.176;2022-09-02T00:23:27;5.90;;;3.90;;
29044;SDS011;16133;49.486;12.176;2022-09-02T00:25:53;6.15;;;3.90;;
29044;SDS011;16133;49.486;12.176;2022-09-02T00:28:18;5.60;;;3.85;;
29044;SDS011;16133;49.486;12.176;2022-09-02T00:30:44;4.40;;;3.60;;
29044;SDS011;16133;49.486;12.176;2022-09-02T00:33:10;6.43;;;3.63;;
29044;SDS011;16133;49.486;12.176;2022-09-02T00:35:36;3.83;;;2.95;;
29044;SDS011;16133;49.486;12.176;2022-09-02T00:38:02;4.47;;;3.42;;
29044;SDS011;16133;49.486;12.176;2022-09-02T00:40:28;4.57;;;3.90;;
29044;SDS011;16133;49.486;12.176;2022-09-02T00:42:53;5.75;;;4.20;;
29044;SDS011;16133;49.486;12.176;2022-09-02T00:45:20;4.10;;;3.17;;
29044;SDS011;16133;49.486;12.176;2022-09-02T00:47:46;4.43;;;3.58;;
29044;SDS011;16133;49.486;12.176;2022-09-02T00:50:15;4.90;;;4.03;;
29044;SDS011;16133;49.486;12.176;2022-09-02T00:52:46;4.47;;;3.20;;
29044;SDS011;16133;49.486;12.176;2022-09-02T00:55:18;4.45;;;3.40;;
29044;SDS011;16133;49.486;12.176;2022-09-02T00:57:48;5.22;;;3.35;;
29044;SDS011;16133;49.486;12.176;2022-09-02T01:00:23;6.05;;;3.17;;
29044;SDS011;16133;49.486;12.176;2022-09-02T01:02:55;3.78;;;3.15;;
29044;SDS011;16133;49.486;12.176;2022-09-02T01:05:28;4.20;;;3.40;;
29044;SDS011;16133;49.486;12.176;2022-09-02T01:07:56;8.20;;;3.97;;
29044;SDS011;16133;49.486;12.176;2022-09-02T01:10:25;4.28;;;3.83;;
29044;SDS011;16133;49.486;12.176;2022-09-02T01:12:58;6.43;;;3.88;;
29044;SDS011;16133;49.486;12.176;2022-09-02T01:15:25;4.72;;;4.10;;
29044;SDS011;16133;49.486;12.176;2022-09-02T01:17:51;4.35;;;3.55;;
29044;SDS011;16133;49.486;12.176;2022-09-02T01:20:19;6.65;;;4.05;;
29044;SDS011;16133;49.486;12.176;2022-09-02T01:22:47;6.95;;;3.25;;
29044;SDS011;16133;49.486;12.176;2022-09-02T01:25:15;4.63;;;3.63;;
29044;SDS011;16133;49.486;12.176;2022-09-02T01:27:43;3.95;;;2.95;;
29044;SDS011;16133;49.486;12.176;2022-09-02T01:30:10;4.97;;;3.40;;
29044;SDS011;16133;49.486;12.176;2022-09-02T01:32:37;9.20;;;3.40;;
29044;SDS011;16133;49.486;12.176;2022-09-02T01:35:02;3.88;;;3.35;;
29044;SDS011;16133;49.486;12.176;2022-09-02T01:37:29;5.25;;;3.78;;
29044;SDS011;16133;49.486;12.176;2022-09-02T01:39:56;6.32;;;4.15;;
29044;SDS011;16133;49.486;12.176;2022-09-02T01:42:21;5.57;;;4.60;;
29044;SDS011;16133;49.486;12.176;2022-09-02T01:44:47;5.10;;;3.55;;
29044;SDS011;16133;49.486;12.176;2022-09-02T01:47:13;5.10;;;3.70;;
29044;SDS011;16133;49.486;12.176;2022-09-02T01:49:42;5.63;;;4.28;;
29044;SDS011;16133;49.486;12.176;2022-09-02T01:52:07;6.30;;;4.00;;
29044;SDS011;16133;49.486;12.176;2022-09-02T01:54:33;4.65;;;3.55;;
29044;SDS011;16133;49.486;12.176;2022-09-02T01:56:59;4.55;;;3.50;;
29044;SDS011;16133;49.486;12.176;2022-09-02T01:59:25;5.43;;;4.20;;
29044;SDS011;16133;49.486;12.176;2022-09-02T02:01:51;8.98;;;5.32;;
29044;SDS011;16133;49.486;12.176;2022-09-02T02:04:16;5.82;;;4.32;;
29044;SDS011;16133;49.486;12.176;2022-09-02T02:06:42;7.45;;;4.93;;
29044;SDS011;16133;49.486;12.176;2022-09-02T02:09:09;6.47;;;4.70;;
29044;SDS011;16133;49.486;12.176;2022-09-02T02:11:36;6.35;;;4.32;;
29044;SDS011;16133;49.486;12.176;2022-09-02T02:14:02;6.95;;;4.47;;
29044;SDS011;16133;49.486;12.176;2022-09-02T02:16:28;5.30;;;3.80;;
29044;SDS011;16133;49.486;12.176;2022-09-02T02:18:54;5.53;;;4.10;;
29044;SDS011;16133;49.486;12.176;2022-09-02T02:21:19;5.10;;;3.92;;
29044;SDS011;16133;49.486;12.176;2022-09-02T02:23:45;5.80;;;4.05;;
29044;SDS011;16133;49.486;12.176;2022-09-02T02:26:11;6.80;;;5.18;;
29044;SDS011;16133;49.486;12.176;2022-09-02T02:28:36;5.97;;;4.70;;
29044;SDS011;16133;49.486;12.176;2022-09-02T02:31:01;8.07;;;4.72;;
29044;SDS011;16133;49.486;12.176;2022-09-02T02:33:27;6.10;;;4.63;;
29044;SDS011;16133;49.486;12.176;2022-09-02T02:35:53;5.43;;;4.47;;
29044;SDS011;16133;49.486;12.176;2022-09-02T02:38:20;6.00;;;4.82;;
29044;SDS011;16133;49.486;12.176;2022-09-02T02:40:45;8.63;;;5.97;;
29044;SDS011;16133;49.486;12.176;2022-09-02T02:43:11;13.18;;;6.60;;
29044;SDS011;16133;49.486;12.176;2022-09-02T02:45:37;7.97;;;5.65;;
29044;SDS011;16133;49.486;12.176;2022-09-02T02:48:03;8.57;;;4.78;;
29044;SDS011;16133;49.486;12.176;2022-09-02T02:50:29;7.82;;;5.32;;
29044;SDS011;16133;49.486;12.176;2022-09-02T02:52:54;6.85;;;4.80;;
29044;SDS011;16133;49.486;12.176;2022-09-02T02:55:21;4.88;;;4.35;;
29044;SDS011;16133;49.486;12.176;2022-09-02T02:57:47;7.40;;;4.32;;
29044;SDS011;16133;49.486;12.176;2022-09-02T03:00:17;6.50;;;4.60;;
29044;SDS011;16133;49.486;12.176;2022-09-02T03:02:46;8.70;;;5.60;;
29044;SDS011;16133;49.486;12.176;2022-09-02T03:05:12;8.63;;;5.55;;
29044;SDS011;16133;49.486;12.176;2022-09-02T03:07:39;10.32;;;6.45;;
29044;SDS011;16133;49.486;12.176;2022-09-02T03:10:05;8.75;;;5.85;;
29044;SDS011;16133;49.486;12.176;2022-09-02T03:12:33;7.63;;;5.75;;
29044;SDS011;16133;49.486;12.176;2022-09-02T03:14:59;6.55;;;5.53;;
29044;SDS011;16133;49.486;12.176;2022-09-02T03:17:26;9.65;;;5.90;;
29044;SDS011;16133;49.486;12.176;2022-09-02T03:19:51;9.00;;;5.68;;
29044;SDS011;16133;49.486;12.176;2022-09-02T03:22:18;11.07;;;6.20;;
29044;SDS011;16133;49.486;12.176;2022-09-02T03:24:43;6.72;;;5.40;;
29044;SDS011;16133;49.486;12.176;2022-09-02T03:27:09;8.52;;;5.45;;
29044;SDS011;16133;49.486;12.176;2022-09-02T03:29:35;11.82;;;5.90;;
29044;SDS011;16133;49.486;12.176;2022-09-02T03:32:00;7.70;;;5.13;;
29044;SDS011;16133;49.486;12.176;2022-09-02T03:34:26;8.68;;;5.10;;
29044;SDS011;16133;49.486;12.176;2022-09-02T03:36:52;8.18;;;5.03;;
29044;SDS011;16133;49.486;12.176;2022-09-02T03:39:17;9.85;;;4.88;;
29044;SDS011;16133;49.486;12.176;2022-09-02T03:41:44;6.32;;;4.85;;
29044;SDS011;16133;49.486;12.176;2022-09-02T03:44:09;10.02;;;5.78;;
29044;SDS011;16133;49.486;12.176;2022-09-02T03:46:35;10.52;;;6.32;;
29044;SDS011;16133;49.486;12.176;2022-09-02T03:49:01;7.75;;;4.95;;
29044;SDS011;16133;49.486;12.176;2022-09-02T03:51:27;6.95;;;5.43;;
29044;SDS011;16133;49.486;12.176;2022-09-02T03:53:54;7.95;;;5.95;;
29044;SDS011;16133;49.486;12.176;2022-09-02T03:56:20;10.50;;;6.28;;
29044;SDS011;16133;49.486;12.176;2022-09-02T03:58:46;9.55;;;6.03;;
29044;SDS011;16133;49.486;12.176;2022-09-02T04:01:20;8.93;;;5.90;;
29044;SDS011;16133;49.486;12.176;2022-09-02T04:03:47;9.40;;;5.75;;
29044;SDS011;16133;49.486;12.176;2022-09-02T04:06:14;8.95;;;4.97;;
29044;SDS011;16133;49.486;12.176;2022-09-02T04:08:41;7.20;;;4.93;;
29044;SDS011;16133;49.486;12.176;2022-09-02T04:11:09;7.38;;;5.28;;
29044;SDS011;16133;49.486;12.176;2022-09-02T04:13:38;8.27;;;5.70;;
29044;SDS011;16133;49.486;12.176;2022-09-02T04:16:08;10.35;;;5.78;;
29044;SDS011;16133;49.486;12.176;2022-09-02T04:18:35;9.20;;;6.30;;
29044;SDS011;16133;49.486;12.176;2022-09-02T04:21:01;7.93;;;5.35;;
29044;SDS011;16133;49.486;12.176;2022-09-02T04:23:27;8.18;;;6.22;;
29044;SDS011;16133;49.486;12.176;2022-09-02T04:25:53;8.52;;;5.93;;
29044;SDS011;16133;49.486;12.176;2022-09-02T04:28:18;7.40;;;5.20;;
29044;SDS011;16133;49.486;12.176;2022-09-02T04:30:44;7.32;;;5.63;;
29044;SDS011;16133;49.486;12.176;2022-09-02T04:33:10;7.85;;;6.00;;
29044;SDS011;16133;49.486;12.176;2022-09-02T04:35:43;12.20;;;5.78;;
29044;SDS011;16133;49.486;12.176;2022-09-02T04:38:10;13.45;;;7.75;;
29044;SDS011;16133;49.486;12.176;2022-09-02T04:40:43;7.13;;;6.05;;
29044;SDS011;16133;49.486;12.176;2022-09-02T04:43:10;8.70;;;6.00;;
29044;SDS011;16133;49.486;12.176;2022-09-02T04:45:39;13.85;;;6.15;;
29044;SDS011;16133;49.486;12.176;2022-09-02T04:48:06;9.18;;;6.35;;
29044;SDS011;16133;49.486;12.176;2022-09-02T04:50:31;10.77;;;6.78;;
29044;SDS011;16133;49.486;12.176;2022-09-02T04:52:59;9.65;;;5.95;;
29044;SDS011;16133;49.486;12.176;2022-09-02T04:55:24;9.65;;;6.10;;
29044;SDS011;16133;49.486;12.176;2022-09-02T04:57:50;16.73;;;7.57;;
29044;SDS011;16133;49.486;12.176;2022-09-02T05:00:15;8.75;;;6.60;;
29044;SDS011;16133;49.486;12.176;2022-09-02T05:02:42;10.88;;;6.80;;
29044;SDS011;16133;49.486;12.176;2022-09-02T05:05:08;11.23;;;6.53;;
29044;SDS011;16133;49.486;12.176;2022-09-02T05:07:34;11.63;;;6.38;;
29044;SDS011;16133;49.486;12.176;2022-09-02T05:10:00;8.00;;;6.35;;
29044;SDS011;16133;49.486;12.176;2022-09-02T05:12:27;9.20;;;6.60;;
29044;SDS011;16133;49.486;12.176;2022-09-02T05:14:53;15.75;;;7.28;;
29044;SDS011;16133;49.486;12.176;2022-09-02T05:17:21;10.60;;;6.95;;
29044;SDS011;16133;49.486;12.176;2022-09-02T05:19:47;12.27;;;6.75;;
29044;SDS011;16133;49.486;12.176;2022-09-02T05:22:12;9.00;;;6.00;;
29044;SDS011;16133;49.486;12.176;2022-09-02T05:24:38;9.70;;;7.20;;
29044;SDS011;16133;49.486;12.176;2022-09-02T05:27:04;11.75;;;6.65;;
29044;SDS011;16133;49.486;12.176;2022-09-02T05:29:29;10.43;;;6.63;;
29044;SDS011;16133;49.486;12.176;2022-09-02T05:31:55;18.77;;;7.70;;
29044;SDS011;16133;49.486;12.176;2022-09-02T05:34:20;11.15;;;7.18;;
29044;SDS011;16133;49.486;12.176;2022-09-02T05:36:46;10.30;;;7.32;;
29044;SDS011;16133;49.486;12.176;2022-09-02T05:39:11;11.02;;;6.55;;
29044;SDS011;16133;49.486;12.176;2022-09-02T05:41:37;10.43;;;6.63;;
29044;SDS011;16133;49.486;12.176;2022-09-02T05:44:03;8.40;;;5.60;;
29044;SDS011;16133;49.486;12.176;2022-09-02T05:46:29;10.43;;;5.28;;
29044;SDS011;16133;49.486;12.176;2022-09-02T05:48:55;9.00;;;5.30;;
29044;SDS011;16133;49.486;12.176;2022-09-02T05:51:31;7.65;;;4.53;;
29044;SDS011;16133;49.486;12.176;2022-09-02T05:53:58;6.68;;;5.00;;
29044;SDS011;16133;49.486;12.176;2022-09-02T05:56:25;7.22;;;5.10;;
29044;SDS011;16133;49.486;12.176;2022-09-02T05:58:51;5.22;;;4.25;;
29044;SDS011;16133;49.486;12.176;2022-09-02T06:01:18;6.55;;;4.40;;
29044;SDS011;16133;49.486;12.176;2022-09-02T06:03:44;5.03;;;3.88;;
29044;SDS011;16133;49.486;12.176;2022-09-02T06:06:10;8.55;;;4.38;;
29044;SDS011;16133;49.486;12.176;2022-09-02T06:08:36;7.03;;;4.68;;
29044;SDS011;16133;49.486;12.176;2022-09-02T06:11:02;7.50;;;4.60;;
29044;SDS011;16133;49.486;12.176;2022-09-02T06:13:32;5.32;;;4.10;;
29044;SDS011;16133;49.486;12.176;2022-09-02T06:16:00;7.40;;;4.82;;
29044;SDS011;16133;49.486;12.176;2022-09-02T06:18:26;7.03;;;5.07;;
29044;SDS011;16133;49.486;12.176;2022-09-02T06:20:52;6.82;;;5.32;;
29044;SDS011;16133;49.486;12.176;2022-09-02T06:23:17;11.02;;;5.53;;
29044;SDS011;16133;49.486;12.176;2022-09-02T06:25:43;6.35;;;4.32;;
29044;SDS011;16133;49.486;12.176;2022-09-02T06:28:11;6.05;;;4.32;;
29044;SDS011;16133;49.486;12.176;2022-09-02T06:30:38;10.63;;;4.20;;
29044;SDS011;16133;49.486;12.176;2022-09-02T06:33:05;6.10;;;3.70;;
29044;SDS011;16133;49.486;12.176;2022-09-02T06:35:30;4.40;;;3.90;;
29044;SDS011;16133;49.486;12.176;2022-09-02T06:38:01;4.38;;;3.50;;
29044;SDS011;16133;49.486;12.176;2022-09-02T06:40:27;6.18;;;3.60;;
29044;SDS011;16133;49.486;12.176;2022-09-02T06:42:53;3.42;;;3.10;;
29044;SDS011;16133;49.486;12.176;2022-09-02T06:45:19;3.45;;;2.78;;
29044;SDS011;16133;49.486;12.176;2022-09-02T06:47:45;7.88;;;3.00;;
29044;SDS011;16133;49.486;12.176;2022-09-02T06:50:10;4.43;;;2.20;;
29044;SDS011;16133;49.486;12.176;2022-09-02T06:52:37;4.57;;;2.40;;
29044;SDS011;16133;49.486;12.176;2022-09-02T06:55:03;2.55;;;2.15;;
29044;SDS011;16133;49.486;12.176;2022-09-02T06:57:29;1.98;;;1.80;;
29044;SDS011;16133;49.486;12.176;2022-09-02T06:59:54;3.55;;;2.03;;
29044;SDS011;16133;49.486;12.176;2022-09-02T07:02:20;2.67;;;2.10;;
29044;SDS011;16133;49.486;12.176;2022-09-02T07:04:45;2.35;;;1.90;;
29044;SDS011;16133;49.486;12.176;2022-09-02T07:07:29;2.30;;;1.70;;
29044;SDS011;16133;49.486;12.176;2022-09-02T07:09:55;4.90;;;2.13;;
29044;SDS011;16133;49.486;12.176;2022-09-02T07:12:20;2.00;;;1.52;;
29044;SDS011;16133;49.486;12.176;2022-09-02T07:14:46;3.78;;;1.52;;
29044;SDS011;16133;49.486;12.176;2022-09-02T07:17:13;1.65;;;1.30;;
29044;SDS011;16133;49.486;12.176;2022-09-02T07:22:11;2.17;;;1.50;;
29044;SDS011;16133;49.486;12.176;2022-09-02T07:24:36;3.03;;;1.45;;
29044;SDS011;16133;49.486;12.176;2022-09-02T07:27:02;2.50;;;1.40;;
29044;SDS011;16133;49.486;12.176;2022-09-02T07:29:27;2.00;;;1.48;;
29044;SDS011;16133;49.486;12.176;2022-09-02T07:31:53;5.20;;;1.60;;
29044;SDS011;16133;49.486;12.176;2022-09-02T07:34:18;2.63;;;1.67;;
29044;SDS011;16133;49.486;12.176;2022-09-02T07:36:45;2.30;;;1.60;;
29044;SDS011;16133;49.486;12.176;2022-09-02T07:39:12;3.03;;;1.63;;
29044;SDS011;16133;49.486;12.176;2022-09-02T07:41:43;1.92;;;1.50;;
29044;SDS011;16133;49.486;12.176;2022-09-02T07:44:10;2.97;;;1.35;;
29044;SDS011;16133;49.486;12.176;2022-09-02T07:46:37;4.13;;;1.48;;
29044;SDS011;16133;49.486;12.176;2022-09-02T07:49:04;1.65;;;1.45;;
29044;SDS011;16133;49.486;12.176;2022-09-02T07:51:32;2.85;;;1.15;;
29044;SDS011;16133;49.486;12.176;2022-09-02T07:53:58;1.67;;;1.15;;
29044;SDS011;16133;49.486;12.176;2022-09-02T07:56:24;3.00;;;1.17;;
29044;SDS011;16133;49.486;12.176;2022-09-02T07:58:50;1.95;;;1.45;;
29044;SDS011;16133;49.486;12.176;2022-09-02T08:01:15;1.30;;;1.20;;
29044;SDS011;16133;49.486;12.176;2022-09-02T08:03:41;1.52;;;1.00;;
29044;SDS011;16133;49.486;12.176;2022-09-02T08:06:09;1.92;;;1.30;;
29044;SDS011;16133;49.486;12.176;2022-09-02T08:11:04;2.03;;;0.90;;
29044;SDS011;16133;49.486;12.176;2022-09-02T08:13:31;2.78;;;1.50;;
29044;SDS011;16133;49.486;12.176;2022-09-02T08:15:57;5.20;;;1.40;;
29044;SDS011;16133;49.486;12.176;2022-09-02T08:18:22;1.73;;;1.13;;
29044;SDS011;16133;49.486;12.176;2022-09-02T08:20:49;2.05;;;1.30;;
29044;SDS011;16133;49.486;12.176;2022-09-02T08:23:14;3.05;;;1.20;;
29044;SDS011;16133;49.486;12.176;2022-09-02T08:25:40;1.83;;;1.17;;
29044;SDS011;16133;49.486;12.176;2022-09-02T08:28:06;2.60;;;1.20;;
29044;SDS011;16133;49.486;12.176;2022-09-02T08:30:32;1.50;;;0.98;;
29044;SDS011;16133;49.486;12.176;2022-09-02T08:32:57;1.48;;;0.93;;
29044;SDS011;16133;49.486;12.176;2022-09-02T08:35:23;5.07;;;1.35;;
29044;SDS011;16133;49.486;12.176;2022-09-02T08:37:49;1.80;;;0.80;;
29044;SDS011;16133;49.486;12.176;2022-09-02T08:40:57;2.33;;;0.82;;
29044;SDS011;16133;49.486;12.176;2022-09-02T08:43:19;1.85;;;1.30;;
29044;SDS011;16133;49.486;12.176;2022-09-02T08:45:49;1.38;;;1.00;;
29044;SDS011;16133;49.486;12.176;2022-09-02T08:50:45;2.78;;;1.60;;
29044;SDS011;16133;49.486;12.176;2022-09-02T08:53:24;4.10;;;1.58;;
29044;SDS011;16133;49.486;12.176;2022-09-02T08:55:56;1.88;;;1.13;;
29044;SDS011;16133;49.486;12.176;2022-09-02T08:58:28;2.58;;;1.33;;
29044;SDS011;16133;49.486;12.176;2022-09-02T09:18:09;1.48;;;0.63;;
29044;SDS011;16133;49.486;12.176;2022-09-02T09:20:40;2.38;;;0.60;;
29044;SDS011;16133;49.486;12.176;2022-09-02T09:23:11;1.58;;;0.75;;
29044;SDS011;16133;49.486;12.176;2022-09-02T09:25:40;2.60;;;0.88;;
29044;SDS011;16133;49.486;12.176;2022-09-02T09:28:06;3.15;;;1.00;;
29044;SDS011;16133;49.486;12.176;2022-09-02T09:30:32;2.35;;;0.98;;
29044;SDS011;16133;49.486;12.176;2022-09-02T09:32:58;2.97;;;1.00;;
29044;SDS011;16133;49.486;12.176;2022-09-02T09:35:24;1.33;;;0.85;;
29044;SDS011;16133;49.486;12.176;2022-09-02T09:37:54;2.83;;;0.90;;
29044;SDS011;16133;49.486;12.176;2022-09-02T09:40:22;1.45;;;0.85;;
29044;SDS011;16133;49.486;12.176;2022-09-02T09:43:10;1.73;;;0.52;;
29044;SDS011;16133;49.486;12.176;2022-09-02T09:45:42;2.72;;;0.88;;
29044;SDS011;16133;49.486;12.176;2022-09-02T09:48:15;1.10;;;0.70;;
29044;SDS011;16133;49.486;12.176;2022-09-02T09:58:20;1.98;;;1.10;;
29044;SDS011;16133;49.486;12.176;2022-09-02T10:00:47;0.93;;;0.80;;
29044;SDS011;16133;49.486;12.176;2022-09-02T10:03:24;1.20;;;0.90;;
29044;SDS011;16133;49.486;12.176;2022-09-02T10:05:55;0.85;;;0.60;;
29044;SDS011;16133;49.486;12.176;2022-09-02T10:08:23;2.25;;;0.80;;
29044;SDS011;16133;49.486;12.176;2022-09-02T10:13:25;1.23;;;1.00;;
29044;SDS011;16133;49.486;12.176;2022-09-02T10:18:40;1.25;;;0.95;;
29044;SDS011;16133;49.486;12.176;2022-09-02T10:30:05;2.17;;;1.10;;
29044;SDS011;16133;49.486;12.176;2022-09-02T10:40:44;2.20;;;1.27;;
29044;SDS011;16133;49.486;12.176;2022-09-02T10:46:08;1.27;;;0.63;;
29044;SDS011;16133;49.486;12.176;2022-09-02T10:53:47;2.53;;;0.63;;
29044;SDS011;16133;49.486;12.176;2022-09-02T10:56:39;1.10;;;0.70;;
29044;SDS011;16133;49.486;12.176;2022-09-02T10:59:20;2.78;;;0.85;;
29044;SDS011;16133;49.486;12.176;2022-09-02T11:01:51;3.33;;;0.85;;
29044;SDS011;16133;49.486;12.176;2022-09-02T11:04:24;1.13;;;0.90;;
29044;SDS011;16133;49.486;12.176;2022-09-02T11:06:57;0.85;;;0.70;;
29044;SDS011;16133;49.486;12.176;2022-09-02T11:09:38;1.95;;;0.93;;
29044;SDS011;16133;49.486;12.176;2022-09-02T11:20:11;3.47;;;0.80;;
29044;SDS011;16133;49.486;12.176;2022-09-02T11:26:23;1.75;;;0.90;;
29044;SDS011;16133;49.486;12.176;2022-09-02T11:28:51;2.90;;;0.88;;
29044;SDS011;16133;49.486;12.176;2022-09-02T11:31:27;1.50;;;0.70;;
29044;SDS011;16133;49.486;12.176;2022-09-02T11:37:06;0.80;;;0.70;;
29044;SDS011;16133;49.486;12.176;2022-09-02T11:47:39;2.05;;;0.65;;
29044;SDS011;16133;49.486;12.176;2022-09-02T11:55:51;1.42;;;0.55;;
29044;SDS011;16133;49.486;12.176;2022-09-02T11:58:36;0.70;;;0.63;;
29044;SDS011;16133;49.486;12.176;2022-09-02T12:01:50;1.08;;;0.80;;
29044;SDS011;16133;49.486;12.176;2022-09-02T12:04:03;2.67;;;0.70;;
29044;SDS011;16133;49.486;12.176;2022-09-02T12:06:35;2.20;;;0.98;;
29044;SDS011;16133;49.486;12.176;2022-09-02T12:09:02;2.97;;;0.73;;
29044;SDS011;16133;49.486;12.176;2022-09-02T12:11:35;1.60;;;0.70;;
29044;SDS011;16133;49.486;12.176;2022-09-02T12:17:03;1.27;;;0.63;;
29044;SDS011;16133;49.486;12.176;2022-09-02T12:24:53;0.43;;;0.43;;
29044;SDS011;16133;49.486;12.176;2022-09-02T12:29:52;0.88;;;0.80;;
29044;SDS011;16133;49.486;12.176;2022-09-02T12:51:57;3.15;;;0.90;;
29044;SDS011;16133;49.486;12.176;2022-09-02T12:54:45;0.82;;;0.73;;
29044;SDS011;16133;49.486;12.176;2022-09-02T12:57:13;3.92;;;0.65;;
29044;SDS011;16133;49.486;12.176;2022-09-02T12:59:41;1.02;;;0.55;;
29044;SDS011;16133;49.486;12.176;2022-09-02T13:07:42;0.80;;;0.60;;
29044;SDS011;16133;49.486;12.176;2022-09-02T13:10:47;0.80;;;0.63;;
29044;SDS011;16133;49.486;12.176;2022-09-02T13:16:21;0.50;;;0.50;;
29044;SDS011;16133;49.486;12.176;2022-09-02T13:27:06;1.27;;;0.63;;
29044;SDS011;16133;49.486;12.176;2022-09-02T13:33:05;1.48;;;0.60;;
29044;SDS011;16133;49.486;12.176;2022-09-02T13:35:40;1.17;;;0.63;;
29044;SDS011;16133;49.486;12.176;2022-09-02T13:38:10;0.93;;;0.80;;
29044;SDS011;16133;49.486;12.176;2022-09-02T13:40:37;0.68;;;0.52;;
29044;SDS011;16133;49.486;12.176;2022-09-02T13:45:39;3.13;;;0.90;;
29044;SDS011;16133;49.486;12.176;2022-09-02T13:48:06;1.00;;;0.70;;
29044;SDS011;16133;49.486;12.176;2022-09-02T13:50:35;0.98;;;0.50;;
29044;SDS011;16133;49.486;12.176;2022-09-02T13:53:02;0.70;;;0.70;;
29044;SDS011;16133;49.486;12.176;2022-09-02T13:55:31;0.77;;;0.70;;
29044;SDS011;16133;49.486;12.176;2022-09-02T13:58:02;0.70;;;0.70;;
29044;SDS011;16133;49.486;12.176;2022-09-02T14:00:39;2.45;;;0.77;;
29044;SDS011;16133;49.486;12.176;2022-09-02T14:05:31;1.13;;;0.88;;
29044;SDS011;16133;49.486;12.176;2022-09-02T14:08:00;0.80;;;0.60;;
29044;SDS011;16133;49.486;12.176;2022-09-02T14:10:29;0.85;;;0.70;;
29044;SDS011;16133;49.486;12.176;2022-09-02T14:12:58;0.95;;;0.75;;
29044;SDS011;16133;49.486;12.176;2022-09-02T14:15:27;0.90;;;0.70;;
29044;SDS011;16133;49.486;12.176;2022-09-02T14:18:13;1.27;;;0.85;;
29044;SDS011;16133;49.486;12.176;2022-09-02T14:23:20;0.60;;;0.60;;
29044;SDS011;16133;49.486;12.176;2022-09-02T14:25:50;1.00;;;0.82;;
29044;SDS011;16133;49.486;12.176;2022-09-02T14:28:19;2.28;;;0.98;;
29044;SDS011;16133;49.486;12.176;2022-09-02T14:30:54;1.55;;;0.50;;
29044;SDS011;16133;49.486;12.176;2022-09-02T14:33:23;0.93;;;0.85;;
29044;SDS011;16133;49.486;12.176;2022-09-02T14:36:01;0.70;;;0.63;;
29044;SDS011;16133;49.486;12.176;2022-09-02T14:38:28;1.40;;;0.75;;
29044;SDS011;16133;49.486;12.176;2022-09-02T14:41:20;1.95;;;0.80;;
29044;SDS011;16133;49.486;12.176;2022-09-02T14:43:50;2.25;;;0.70;;
29044;SDS011;16133;49.486;12.176;2022-09-02T14:46:31;2.42;;;0.75;;
29044;SDS011;16133;49.486;12.176;2022-09-02T14:51:50;1.75;;;0.85;;
29044;SDS011;16133;49.486;12.176;2022-09-02T14:57:18;0.98;;;0.80;;
29044;SDS011;16133;49.486;12.176;2022-09-02T14:59:52;1.35;;;1.15;;
29044;SDS011;16133;49.486;12.176;2022-09-02T15:04:52;1.35;;;0.73;;
29044;SDS011;16133;49.486;12.176;2022-09-02T15:07:21;0.60;;;0.60;;
29044;SDS011;16133;49.486;12.176;2022-09-02T15:09:48;2.35;;;1.15;;
29044;SDS011;16133;49.486;12.176;2022-09-02T15:12:15;0.60;;;0.60;;
29044;SDS011;16133;49.486;12.176;2022-09-02T15:14:43;0.73;;;0.65;;
29044;SDS011;16133;49.486;12.176;2022-09-02T15:17:10;2.42;;;1.23;;
29044;SDS011;16133;49.486;12.176;2022-09-02T15:19:38;5.15;;;1.67;;
29044;SDS011;16133;49.486;12.176;2022-09-02T15:22:03;2.65;;;0.75;;
29044;SDS011;16133;49.486;12.176;2022-09-02T15:24:29;1.10;;;0.73;;
29044;SDS011;16133;49.486;12.176;2022-09-02T15:26:54;2.30;;;0.90;;
29044;SDS011;16133;49.486;12.176;2022-09-02T15:29:19;0.60;;;0.60;;
29044;SDS011;16133;49.486;12.176;2022-09-02T15:31:45;0.82;;;0.70;;
29044;SDS011;16133;49.486;12.176;2022-09-02T15:34:10;2.85;;;0.90;;
29044;SDS011;16133;49.486;12.176;2022-09-02T15:36:36;2.10;;;1.13;;
29044;SDS011;16133;49.486;12.176;2022-09-02T15:39:02;1.23;;;1.00;;
29044;SDS011;16133;49.486;12.176;2022-09-02T15:41:28;2.00;;;1.05;;
29044;SDS011;16133;49.486;12.176;2022-09-02T15:43:55;1.13;;;1.00;;
29044;SDS011;16133;49.486;12.176;2022-09-02T15:46:27;2.05;;;0.93;;
29044;SDS011;16133;49.486;12.176;2022-09-02T15:48:54;5.30;;;0.80;;
29044;SDS011;16133;49.486;12.176;2022-09-02T15:51:24;2.28;;;1.27;;
29044;SDS011;16133;49.486;12.176;2022-09-02T15:53:53;3.33;;;1.30;;
29044;SDS011;16133;49.486;12.176;2022-09-02T15:56:20;1.10;;;1.00;;
29044;SDS011;16133;49.486;12.176;2022-09-02T15:58:52;1.70;;;1.10;;
29044;SDS011;16133;49.486;12.176;2022-09-02T16:01:22;3.88;;;0.93;;
29044;SDS011;16133;49.486;12.176;2022-09-02T16:03:51;1.05;;;0.82;;
29044;SDS011;16133;49.486;12.176;2022-09-02T16:06:17;3.20;;;1.33;;
29044;SDS011;16133;49.486;12.176;2022-09-02T16:08:43;2.45;;;0.90;;
29044;SDS011;16133;49.486;12.176;2022-09-02T16:11:08;2.03;;;0.90;;
29044;SDS011;16133;49.486;12.176;2022-09-02T16:13:34;0.98;;;0.88;;
29044;SDS011;16133;49.486;12.176;2022-09-02T16:16:02;2.22;;;1.13;;
29044;SDS011;16133;49.486;12.176;2022-09-02T16:18:29;0.85;;;0.85;;
29044;SDS011;16133;49.486;12.176;2022-09-02T16:20:54;1.90;;;1.08;;
29044;SDS011;16133;49.486;12.176;2022-09-02T16:23:20;0.90;;;0.82;;
29044;SDS011;16133;49.486;12.176;2022-09-02T16:25:45;1.27;;;0.90;;
29044;SDS011;16133;49.486;12.176;2022-09-02T16:28:10;1.38;;;0.80;;
29044;SDS011;16133;49.486;12.176;2022-09-02T16:30:36;1.77;;;1.08;;
29044;SDS011;16133;49.486;12.176;2022-09-02T16:33:02;1.38;;;0.80;;
29044;SDS011;16133;49.486;12.176;2022-09-02T16:35:27;4.85;;;0.93;;
29044;SDS011;16133;49.486;12.176;2022-09-02T16:37:52;2.00;;;0.82;;
29044;SDS011;16133;49.486;12.176;2022-09-02T16:40:21;3.85;;;1.40;;
29044;SDS011;16133;49.486;12.176;2022-09-02T16:42:47;2.17;;;1.00;;
29044;SDS011;16133;49.486;12.176;2022-09-02T16:45:13;1.15;;;0.90;;
29044;SDS011;16133;49.486;12.176;2022-09-02T16:47:38;2.30;;;1.08;;
29044;SDS011;16133;49.486;12.176;2022-09-02T16:50:04;2.30;;;0.90;;
29044;SDS011;16133;49.486;12.176;2022-09-02T16:52:30;1.23;;;0.70;;
29044;SDS011;16133;49.486;12.176;2022-09-02T16:54:58;1.15;;;0.98;;
29044;SDS011;16133;49.486;12.176;2022-09-02T16:57:24;0.90;;;0.75;;
29044;SDS011;16133;49.486;12.176;2022-09-02T16:59:49;1.00;;;0.90;;
29044;SDS011;16133;49.486;12.176;2022-09-02T17:02:15;1.17;;;0.82;;
29044;SDS011;16133;49.486;12.176;2022-09-02T17:04:41;1.48;;;0.80;;
29044;SDS011;16133;49.486;12.176;2022-09-02T17:07:06;1.17;;;0.95;;
29044;SDS011;16133;49.486;12.176;2022-09-02T17:09:31;1.95;;;0.77;;
29044;SDS011;16133;49.486;12.176;2022-09-02T17:11:57;0.73;;;0.70;;
29044;SDS011;16133;49.486;12.176;2022-09-02T17:14:22;3.78;;;1.00;;
29044;SDS011;16133;49.486;12.176;2022-09-02T17:16:48;1.88;;;1.17;;